createdAt,value
2023-02-17T00:01:18.526Z,16.13
2023-02-17T00:03:48.983Z,15.60
2023-02-17T00:06:18.913Z,15.50
2023-02-17T00:08:49.365Z,16.10
2023-02-17T00:11:18.713Z,14.70
2023-02-17T00:13:47.445Z,16.67
2023-02-17T00:16:19.532Z,16.80
2023-02-17T00:18:53.372Z,16.53
2023-02-17T00:21:23.161Z,15.57
2023-02-17T00:23:51.844Z,15.70
2023-02-17T00:26:20.739Z,16.80
2023-02-17T00:28:49.620Z,15.87
2023-02-17T00:31:20.781Z,16.53
2023-02-17T00:33:50.582Z,17.00
2023-02-17T00:36:20.658Z,16.77
2023-02-17T00:38:49.903Z,16.83
2023-02-17T00:41:18.076Z,16.30
2023-02-17T00:43:45.950Z,16.30
2023-02-17T00:46:14.751Z,18.43
2023-02-17T00:48:43.258Z,17.83
2023-02-17T00:51:12.728Z,18.87
2023-02-17T00:53:41.329Z,18.00
2023-02-17T00:56:10.636Z,18.57
2023-02-17T00:58:38.978Z,20.17
2023-02-17T01:01:06.912Z,22.80
2023-02-17T01:03:34.834Z,17.77
2023-02-17T01:06:07.409Z,21.03
2023-02-17T01:08:37.248Z,20.00
2023-02-17T01:11:08.303Z,19.63
2023-02-17T01:13:36.125Z,20.73
2023-02-17T01:16:04.276Z,16.83
2023-02-17T01:18:32.420Z,18.53
2023-02-17T01:21:00.303Z,16.87
2023-02-17T01:23:28.168Z,16.87
2023-02-17T01:25:57.412Z,17.97
2023-02-17T01:28:25.294Z,16.03
2023-02-17T01:30:53.481Z,17.03
2023-02-17T01:33:21.304Z,16.47
2023-02-17T01:35:49.082Z,17.07
2023-02-17T01:38:16.914Z,16.00
2023-02-17T01:40:49.128Z,18.17
2023-02-17T01:43:19.157Z,22.00
2023-02-17T01:45:53.590Z,16.63
2023-02-17T01:48:25.197Z,17.67
2023-02-17T01:50:56.146Z,16.83
2023-02-17T01:53:28.941Z,16.60
2023-02-17T01:55:57.474Z,16.00
2023-02-17T01:58:28.844Z,17.53
2023-02-17T02:01:00.207Z,16.47
2023-02-17T02:03:31.344Z,18.20
2023-02-17T02:06:00.122Z,16.63
2023-02-17T02:08:30.904Z,21.97
2023-02-17T02:10:59.090Z,16.80
2023-02-17T02:13:28.336Z,19.13
2023-02-17T02:16:02.472Z,21.00
2023-02-17T02:18:42.608Z,17.40
2023-02-17T02:22:05.848Z,17.53
2023-02-17T02:24:49.726Z,18.10
2023-02-17T02:27:36.761Z,14.97
2023-02-17T02:30:29.263Z,15.17
2023-02-17T02:33:05.887Z,16.60
2023-02-17T02:35:43.394Z,17.80
2023-02-17T02:38:17.517Z,16.97
2023-02-17T02:40:49.824Z,17.70
2023-02-17T02:43:18.377Z,15.87
2023-02-17T02:45:46.695Z,18.73
2023-02-17T02:48:18.165Z,14.87
2023-02-17T02:51:06.639Z,19.20
2023-02-17T02:54:05.021Z,22.17
2023-02-17T02:56:48.485Z,19.27
2023-02-17T02:59:29.605Z,19.33
2023-02-17T03:02:07.349Z,18.93
2023-02-17T03:04:40.128Z,19.10
2023-02-17T03:07:21.073Z,19.90
2023-02-17T03:09:50.223Z,19.13
2023-02-17T03:12:18.262Z,21.27
2023-02-17T03:14:48.205Z,18.20
2023-02-17T03:17:18.810Z,18.07
2023-02-17T03:19:48.730Z,17.80
2023-02-17T03:22:20.804Z,18.77
2023-02-17T03:24:48.840Z,22.53
2023-02-17T03:27:16.721Z,18.57
2023-02-17T03:29:44.597Z,22.43
2023-02-17T03:32:12.877Z,22.47
2023-02-17T03:34:40.940Z,21.10
2023-02-17T03:37:12.497Z,20.37
2023-02-17T03:39:40.581Z,21.53
2023-02-17T03:42:08.396Z,19.70
2023-02-17T03:44:36.251Z,21.27
2023-02-17T03:47:04.514Z,21.67
2023-02-17T03:49:32.501Z,20.47
2023-02-17T03:52:00.505Z,21.27
2023-02-17T03:54:29.785Z,21.57
2023-02-17T03:56:59.076Z,20.50
2023-02-17T03:59:27.171Z,20.53
2023-02-17T04:01:55.149Z,22.23
2023-02-17T04:04:23.193Z,21.20
2023-02-17T04:06:51.017Z,20.63
2023-02-17T04:09:18.820Z,21.10
2023-02-17T04:11:48.103Z,24.90
2023-02-17T04:14:16.278Z,22.20
2023-02-17T04:16:44.108Z,22.70
2023-02-17T04:19:12.157Z,22.20
2023-02-17T04:21:40.036Z,21.60
2023-02-17T04:24:07.904Z,21.33
2023-02-17T04:26:35.927Z,21.90
2023-02-17T04:29:06.819Z,20.13
2023-02-17T04:31:34.669Z,20.17
2023-02-17T04:34:02.503Z,16.67
2023-02-17T04:36:30.394Z,15.87
2023-02-17T04:38:58.236Z,17.27
2023-02-17T04:41:26.077Z,16.97
2023-02-17T04:43:53.867Z,14.70
2023-02-17T04:46:23.217Z,18.53
2023-02-17T04:48:51.119Z,17.50
2023-02-17T04:51:19.014Z,16.87
2023-02-17T04:53:49.977Z,16.23
2023-02-17T04:56:17.854Z,17.20
2023-02-17T04:58:45.743Z,18.53
2023-02-17T05:01:13.809Z,18.13
2023-02-17T05:03:43.102Z,15.63
2023-02-17T05:06:10.948Z,17.63
2023-02-17T05:08:39.039Z,17.37
2023-02-17T05:11:08.586Z,17.57
2023-02-17T05:13:36.400Z,19.77
2023-02-17T05:16:07.200Z,20.67
2023-02-17T05:18:35.275Z,18.33
2023-02-17T05:21:04.854Z,21.27
2023-02-17T05:23:32.733Z,19.27
2023-02-17T05:26:00.687Z,21.87
2023-02-17T05:28:28.686Z,22.97
2023-02-17T05:30:56.518Z,22.30
2023-02-17T05:33:24.343Z,24.80
2023-02-17T05:35:52.204Z,21.33
2023-02-17T05:38:21.970Z,20.80
2023-02-17T05:40:51.244Z,20.97
2023-02-17T05:43:19.040Z,24.70
2023-02-17T05:45:47.158Z,25.97
2023-02-17T05:48:15.901Z,24.73
2023-02-17T05:50:44.012Z,23.33
2023-02-17T05:53:12.060Z,20.00
2023-02-17T05:55:41.221Z,23.73
2023-02-17T05:58:09.060Z,20.40
2023-02-17T06:00:36.978Z,21.37
2023-02-17T06:03:05.086Z,23.03
2023-02-17T06:05:33.026Z,22.80
2023-02-17T06:08:00.834Z,21.50
2023-02-17T06:10:28.730Z,22.47
2023-02-17T06:12:57.930Z,20.70
2023-02-17T06:15:25.902Z,23.33
2023-02-17T06:17:53.738Z,23.33
2023-02-17T06:20:21.942Z,22.87
2023-02-17T06:22:49.783Z,21.93
2023-02-17T06:25:17.878Z,21.73
2023-02-17T06:27:45.762Z,22.37
2023-02-17T06:30:17.581Z,19.57
2023-02-17T06:32:45.654Z,23.13
2023-02-17T06:35:13.834Z,22.20
2023-02-17T06:37:41.613Z,20.13
2023-02-17T06:40:10.997Z,21.40
2023-02-17T06:42:38.845Z,22.90
2023-02-17T06:45:10.394Z,18.00
2023-02-17T06:47:39.748Z,17.43
2023-02-17T06:50:09.337Z,19.20
2023-02-17T06:52:37.201Z,15.57
2023-02-17T06:55:06.016Z,17.60
2023-02-17T06:57:33.874Z,18.87
2023-02-17T07:00:01.692Z,15.17
2023-02-17T07:02:29.655Z,19.57
2023-02-17T07:04:58.929Z,16.07
2023-02-17T07:07:26.808Z,17.80
2023-02-17T07:09:54.645Z,15.73
2023-02-17T07:12:22.485Z,19.27
2023-02-17T07:14:50.614Z,18.90
2023-02-17T07:17:18.567Z,13.50
2023-02-17T07:19:49.787Z,14.30
2023-02-17T07:22:19.068Z,15.10
2023-02-17T07:24:49.999Z,15.17
2023-02-17T07:27:17.909Z,15.53
2023-02-17T07:29:45.817Z,13.63
2023-02-17T07:32:13.822Z,16.70
2023-02-17T07:34:41.604Z,15.77
2023-02-17T07:37:09.875Z,14.40
2023-02-17T07:39:39.102Z,12.93
2023-02-17T07:42:09.895Z,13.50
2023-02-17T07:44:37.805Z,13.17
2023-02-17T07:47:08.286Z,12.27
2023-02-17T07:49:36.250Z,14.33
2023-02-17T07:52:05.453Z,13.73
2023-02-17T07:54:33.469Z,14.43
2023-02-17T07:57:02.764Z,12.40
2023-02-17T07:59:30.810Z,11.40
2023-02-17T08:01:58.687Z,13.10
2023-02-17T08:04:26.757Z,13.70
2023-02-17T08:06:54.774Z,12.97
2023-02-17T08:09:40.193Z,11.93
2023-02-17T08:12:33.285Z,13.93
2023-02-17T08:15:01.834Z,12.13
2023-02-17T08:17:30.388Z,13.80
2023-02-17T08:20:00.513Z,11.60
2023-02-17T08:22:29.988Z,11.93
2023-02-17T08:24:57.924Z,11.80
2023-02-17T08:27:27.316Z,10.30
2023-02-17T08:29:55.906Z,11.23
2023-02-17T08:32:24.407Z,9.33
2023-02-17T08:34:55.965Z,12.13
2023-02-17T08:37:23.951Z,11.90
2023-02-17T08:39:52.066Z,12.73
2023-02-17T08:42:20.067Z,11.77
2023-02-17T08:44:49.611Z,12.37
2023-02-17T08:47:17.600Z,10.53
2023-02-17T08:49:45.742Z,10.13
2023-02-17T08:52:13.764Z,9.93
2023-02-17T08:54:41.651Z,10.20
2023-02-17T08:57:09.462Z,10.37
2023-02-17T08:59:37.353Z,9.30
2023-02-17T09:02:06.942Z,10.73
2023-02-17T09:04:34.926Z,8.30
2023-02-17T09:07:03.919Z,11.20
2023-02-17T09:09:32.527Z,9.75
2023-02-17T09:12:00.476Z,9.33
2023-02-17T09:14:29.023Z,8.83
2023-02-17T09:16:57.742Z,9.17
2023-02-17T09:19:27.421Z,8.23
2023-02-17T09:21:55.559Z,7.83
2023-02-17T09:24:23.537Z,9.13
2023-02-17T09:26:51.507Z,9.43
2023-02-17T09:29:19.642Z,7.43
2023-02-17T09:31:47.791Z,8.70
2023-02-17T09:34:16.371Z,9.70
2023-02-17T09:36:45.797Z,7.05
2023-02-17T09:39:14.717Z,9.07
2023-02-17T09:41:47.101Z,9.00
2023-02-17T09:44:21.913Z,7.07
2023-02-17T09:47:02.201Z,8.47
2023-02-17T09:49:37.726Z,7.07
2023-02-17T09:52:13.018Z,6.18
2023-02-17T09:54:49.985Z,6.80
2023-02-17T09:57:21.003Z,6.47
2023-02-17T09:59:55.165Z,6.73
2023-02-17T10:02:28.836Z,9.83
2023-02-17T10:04:58.656Z,8.73
2023-02-17T10:07:31.443Z,7.07
2023-02-17T10:10:06.529Z,6.33
2023-02-17T10:12:39.283Z,10.20
2023-02-17T10:15:17.846Z,7.23
2023-02-17T10:17:52.929Z,6.82
2023-02-17T10:20:24.680Z,6.50
2023-02-17T10:22:56.884Z,5.77
2023-02-17T10:25:39.419Z,6.65
2023-02-17T10:28:10.786Z,7.03
2023-02-17T10:30:45.858Z,8.63
2023-02-17T10:33:18.537Z,7.90
2023-02-17T10:36:00.938Z,8.97
2023-02-17T10:38:42.161Z,9.13
2023-02-17T10:41:15.800Z,6.43
2023-02-17T10:43:47.658Z,6.68
2023-02-17T10:46:18.823Z,8.57
2023-02-17T10:48:50.891Z,6.15
2023-02-17T10:51:23.415Z,7.83
2023-02-17T10:53:57.463Z,7.80
2023-02-17T10:56:29.748Z,7.63
2023-02-17T10:59:02.851Z,9.13
2023-02-17T11:01:30.847Z,8.47
2023-02-17T11:04:06.102Z,7.07
2023-02-17T11:06:39.217Z,8.93
2023-02-17T11:09:20.012Z,6.80
2023-02-17T11:11:56.084Z,7.57
2023-02-17T11:14:28.397Z,7.93
2023-02-17T11:17:00.114Z,7.00
2023-02-17T11:19:30.928Z,8.55
2023-02-17T11:22:01.700Z,9.30
2023-02-17T11:24:33.140Z,10.60
2023-02-17T11:27:03.683Z,13.45
2023-02-17T11:29:33.119Z,7.50
2023-02-17T11:32:04.805Z,10.05
2023-02-17T11:34:34.777Z,9.20
2023-02-17T11:37:07.897Z,7.95
2023-02-17T11:39:41.762Z,10.00
2023-02-17T11:42:17.020Z,7.83
2023-02-17T11:44:44.973Z,7.43
2023-02-17T11:47:22.577Z,8.17
2023-02-17T11:50:18.601Z,11.07
2023-02-17T11:53:01.007Z,7.00
2023-02-17T11:55:42.637Z,10.13
2023-02-17T20:52:24.998Z,21.07
2023-02-17T20:54:53.038Z,20.80
2023-02-17T20:57:20.938Z,19.93
2023-02-17T20:59:49.483Z,22.53
2023-02-17T21:02:17.404Z,23.97
2023-02-17T21:04:46.759Z,21.13
2023-02-17T21:07:14.754Z,28.17
2023-02-17T21:09:43.917Z,19.40
2023-02-17T21:12:11.734Z,23.87
2023-02-17T21:14:39.891Z,22.70
2023-02-17T21:17:07.686Z,23.43
2023-02-17T21:19:35.533Z,23.53
2023-02-17T21:22:05.448Z,26.63
2023-02-17T21:24:33.404Z,25.33
2023-02-17T21:27:02.644Z,21.67
2023-02-17T21:29:30.636Z,19.70
2023-02-17T21:31:58.563Z,20.23
2023-02-17T21:34:26.457Z,21.17
2023-02-17T21:36:54.657Z,22.80
2023-02-17T21:39:22.709Z,21.13
2023-02-17T21:41:51.477Z,23.73
2023-02-17T21:44:38.495Z,20.10
2023-02-17T21:47:09.436Z,20.90
2023-02-17T21:49:37.346Z,28.50
2023-02-17T21:52:09.133Z,16.40
2023-02-17T21:54:37.195Z,23.23
2023-02-17T21:57:05.698Z,20.90
2023-02-17T21:59:34.893Z,19.53
2023-02-17T22:02:02.755Z,19.80
2023-02-17T22:04:30.604Z,22.20
2023-02-17T22:06:58.608Z,24.80
2023-02-17T22:09:26.495Z,19.97
2023-02-17T22:11:55.520Z,19.67
2023-02-17T22:14:23.381Z,21.00
2023-02-17T22:16:52.771Z,20.80
2023-02-17T22:19:22.860Z,20.20
2023-02-17T22:21:51.883Z,23.97
2023-02-17T22:24:20.712Z,20.80
2023-02-17T22:26:48.969Z,19.77
2023-02-17T22:29:16.882Z,17.73
2023-02-17T22:31:44.944Z,21.33
2023-02-17T22:34:16.399Z,30.40
2023-02-17T22:36:46.290Z,26.43
2023-02-17T22:39:14.685Z,24.13
2023-02-17T22:41:42.629Z,23.57
2023-02-17T22:44:10.455Z,26.60
2023-02-17T22:46:38.373Z,23.70
2023-02-17T22:49:09.696Z,27.57
2023-02-17T22:51:41.011Z,25.53
2023-02-17T22:54:09.752Z,27.73
2023-02-17T22:56:38.517Z,28.77
2023-02-17T22:59:06.965Z,29.80
2023-02-17T23:01:37.087Z,27.97
2023-02-17T23:04:06.937Z,27.23
2023-02-17T23:06:36.863Z,29.43
2023-02-17T23:09:10.945Z,24.97
2023-02-17T23:11:54.799Z,25.93
2023-02-17T23:14:25.534Z,28.57
2023-02-17T23:16:55.000Z,33.37
2023-02-17T23:19:24.362Z,23.00
2023-02-17T23:21:53.955Z,28.77
2023-02-17T23:24:24.618Z,27.40
2023-02-17T23:26:53.548Z,33.43
2023-02-17T23:29:21.741Z,26.23
2023-02-17T23:31:49.689Z,34.80
2023-02-17T23:34:17.753Z,29.23
2023-02-17T23:36:49.902Z,36.57
2023-02-17T23:39:18.236Z,30.33
2023-02-17T23:41:47.554Z,32.20
2023-02-17T23:44:16.622Z,28.93
2023-02-17T23:46:45.608Z,32.20
2023-02-17T23:49:15.923Z,32.80
2023-02-17T23:51:44.532Z,32.23
2023-02-17T23:54:12.520Z,34.13
2023-02-17T23:56:41.837Z,32.93
2023-02-17T23:59:11.568Z,34.23
